sensor_id;sensor_type;location;lat;lon;timestamp;P1;durP1;ratioP1;P2;durP2;ratioP2
20531;SDS011;10424;52.102;8.084;2023-04-24T00:01:10;1.15;;;0.90;;
20531;SDS011;10424;52.102;8.084;2023-04-24T00:03:38;1.55;;;0.85;;
20531;SDS011;10424;52.102;8.084;2023-04-24T00:06:06;1.15;;;1.05;;
20531;SDS011;10424;52.102;8.084;2023-04-24T00:08:34;1.23;;;0.95;;
20531;SDS011;10424;52.102;8.084;2023-04-24T00:11:01;1.65;;;1.20;;
20531;SDS011;10424;52.102;8.084;2023-04-24T00:13:30;2.38;;;1.00;;
20531;SDS011;10424;52.102;8.084;2023-04-24T00:15:57;1.58;;;1.17;;
20531;SDS011;10424;52.102;8.084;2023-04-24T00:18:24;2.53;;;1.30;;
20531;SDS011;10424;52.102;8.084;2023-04-24T00:20:51;1.65;;;1.30;;
20531;SDS011;10424;52.102;8.084;2023-04-24T00:23:19;2.10;;;1.25;;
20531;SDS011;10424;52.102;8.084;2023-04-24T00:25:46;1.95;;;1.20;;
20531;SDS011;10424;52.102;8.084;2023-04-24T00:28:13;1.63;;;1.40;;
20531;SDS011;10424;52.102;8.084;2023-04-24T00:30:42;1.98;;;1.40;;
20531;SDS011;10424;52.102;8.084;2023-04-24T00:33:09;1.65;;;1.50;;
20531;SDS011;10424;52.102;8.084;2023-04-24T00:35:36;3.78;;;1.70;;
20531;SDS011;10424;52.102;8.084;2023-04-24T00:38:04;4.90;;;1.95;;
20531;SDS011;10424;52.102;8.084;2023-04-24T00:40:31;2.50;;;1.33;;
20531;SDS011;10424;52.102;8.084;2023-04-24T00:42:58;2.90;;;1.70;;
20531;SDS011;10424;52.102;8.084;2023-04-24T00:45:26;2.10;;;1.73;;
20531;SDS011;10424;52.102;8.084;2023-04-24T00:47:54;2.33;;;1.75;;
20531;SDS011;10424;52.102;8.084;2023-04-24T00:50:22;2.05;;;1.55;;
20531;SDS011;10424;52.102;8.084;2023-04-24T00:52:51;1.75;;;1.42;;
20531;SDS011;10424;52.102;8.084;2023-04-24T00:55:18;2.55;;;1.42;;
20531;SDS011;10424;52.102;8.084;2023-04-24T00:57:46;1.90;;;1.40;;
20531;SDS011;10424;52.102;8.084;2023-04-24T01:00:14;1.45;;;1.30;;
20531;SDS011;10424;52.102;8.084;2023-04-24T01:02:42;2.65;;;1.25;;
20531;SDS011;10424;52.102;8.084;2023-04-24T01:05:12;1.73;;;1.00;;
20531;SDS011;10424;52.102;8.084;2023-04-24T01:07:40;1.27;;;1.00;;
20531;SDS011;10424;52.102;8.084;2023-04-24T01:10:10;1.80;;;0.90;;
20531;SDS011;10424;52.102;8.084;2023-04-24T01:12:38;1.63;;;0.90;;
20531;SDS011;10424;52.102;8.084;2023-04-24T01:15:06;1.33;;;1.00;;
20531;SDS011;10424;52.102;8.084;2023-04-24T01:17:33;0.90;;;0.90;;
20531;SDS011;10424;52.102;8.084;2023-04-24T01:20:01;0.95;;;0.85;;
20531;SDS011;10424;52.102;8.084;2023-04-24T01:22:32;2.15;;;1.27;;
20531;SDS011;10424;52.102;8.084;2023-04-24T01:24:59;2.40;;;1.30;;
20531;SDS011;10424;52.102;8.084;2023-04-24T01:27:27;1.60;;;1.20;;
20531;SDS011;10424;52.102;8.084;2023-04-24T01:29:54;0.88;;;0.82;;
20531;SDS011;10424;52.102;8.084;2023-04-24T01:32:21;1.42;;;1.13;;
20531;SDS011;10424;52.102;8.084;2023-04-24T01:34:48;1.50;;;1.20;;
20531;SDS011;10424;52.102;8.084;2023-04-24T01:37:16;1.70;;;1.13;;
20531;SDS011;10424;52.102;8.084;2023-04-24T01:39:44;5.22;;;1.30;;
20531;SDS011;10424;52.102;8.084;2023-04-24T01:42:12;2.15;;;1.20;;
20531;SDS011;10424;52.102;8.084;2023-04-24T01:44:40;2.55;;;1.65;;
20531;SDS011;10424;52.102;8.084;2023-04-24T01:47:08;1.77;;;1.15;;
20531;SDS011;10424;52.102;8.084;2023-04-24T01:49:35;2.55;;;1.67;;
20531;SDS011;10424;52.102;8.084;2023-04-24T01:52:04;2.10;;;1.70;;
20531;SDS011;10424;52.102;8.084;2023-04-24T01:54:31;2.95;;;1.60;;
20531;SDS011;10424;52.102;8.084;2023-04-24T01:57:00;2.28;;;1.50;;
20531;SDS011;10424;52.102;8.084;2023-04-24T01:59:28;1.33;;;1.05;;
20531;SDS011;10424;52.102;8.084;2023-04-24T02:01:55;1.30;;;1.20;;
20531;SDS011;10424;52.102;8.084;2023-04-24T02:04:22;2.58;;;1.60;;
20531;SDS011;10424;52.102;8.084;2023-04-24T02:06:50;1.60;;;1.25;;
20531;SDS011;10424;52.102;8.084;2023-04-24T02:09:17;1.35;;;1.20;;
20531;SDS011;10424;52.102;8.084;2023-04-24T02:11:44;2.42;;;1.50;;
20531;SDS011;10424;52.102;8.084;2023-04-24T02:14:13;2.25;;;1.60;;
20531;SDS011;10424;52.102;8.084;2023-04-24T02:16:40;2.40;;;1.52;;
20531;SDS011;10424;52.102;8.084;2023-04-24T02:19:08;1.73;;;1.35;;
20531;SDS011;10424;52.102;8.084;2023-04-24T02:21:36;1.92;;;1.45;;
20531;SDS011;10424;52.102;8.084;2023-04-24T02:24:03;1.58;;;1.15;;
20531;SDS011;10424;52.102;8.084;2023-04-24T02:26:30;1.98;;;1.67;;
20531;SDS011;10424;52.102;8.084;2023-04-24T02:28:58;2.97;;;1.63;;
20531;SDS011;10424;52.102;8.084;2023-04-24T02:31:26;1.52;;;1.25;;
20531;SDS011;10424;52.102;8.084;2023-04-24T02:33:54;1.90;;;1.50;;
20531;SDS011;10424;52.102;8.084;2023-04-24T02:36:21;2.55;;;2.00;;
20531;SDS011;10424;52.102;8.084;2023-04-24T02:38:48;4.20;;;1.88;;
20531;SDS011;10424;52.102;8.084;2023-04-24T02:41:15;2.65;;;1.63;;
20531;SDS011;10424;52.102;8.084;2023-04-24T02:43:43;2.30;;;1.48;;
20531;SDS011;10424;52.102;8.084;2023-04-24T02:46:10;2.28;;;1.88;;
20531;SDS011;10424;52.102;8.084;2023-04-24T02:48:39;3.38;;;2.17;;
20531;SDS011;10424;52.102;8.084;2023-04-24T02:51:06;2.47;;;1.58;;
20531;SDS011;10424;52.102;8.084;2023-04-24T02:53:33;2.70;;;2.03;;
20531;SDS011;10424;52.102;8.084;2023-04-24T02:56:01;5.18;;;2.22;;
20531;SDS011;10424;52.102;8.084;2023-04-24T02:58:28;2.83;;;1.73;;
20531;SDS011;10424;52.102;8.084;2023-04-24T03:00:55;3.00;;;1.75;;
20531;SDS011;10424;52.102;8.084;2023-04-24T03:03:22;2.50;;;1.90;;
20531;SDS011;10424;52.102;8.084;2023-04-24T03:05:51;2.38;;;1.85;;
20531;SDS011;10424;52.102;8.084;2023-04-24T03:08:19;4.65;;;3.00;;
20531;SDS011;10424;52.102;8.084;2023-04-24T03:10:46;2.45;;;1.83;;
20531;SDS011;10424;52.102;8.084;2023-04-24T03:13:13;3.90;;;1.80;;
20531;SDS011;10424;52.102;8.084;2023-04-24T03:15:40;7.72;;;3.00;;
20531;SDS011;10424;52.102;8.084;2023-04-24T03:18:08;4.22;;;3.20;;
20531;SDS011;10424;52.102;8.084;2023-04-24T03:20:35;4.57;;;2.67;;
20531;SDS011;10424;52.102;8.084;2023-04-24T03:23:04;4.97;;;2.83;;
20531;SDS011;10424;52.102;8.084;2023-04-24T03:25:31;3.95;;;2.97;;
20531;SDS011;10424;52.102;8.084;2023-04-24T03:27:58;4.22;;;2.20;;
20531;SDS011;10424;52.102;8.084;2023-04-24T03:30:26;4.47;;;2.83;;
20531;SDS011;10424;52.102;8.084;2023-04-24T03:32:53;3.22;;;2.10;;
20531;SDS011;10424;52.102;8.084;2023-04-24T03:35:20;8.45;;;3.63;;
20531;SDS011;10424;52.102;8.084;2023-04-24T03:37:48;3.45;;;2.75;;
20531;SDS011;10424;52.102;8.084;2023-04-24T03:40:16;4.65;;;3.70;;
20531;SDS011;10424;52.102;8.084;2023-04-24T03:42:44;4.78;;;2.42;;
20531;SDS011;10424;52.102;8.084;2023-04-24T03:45:11;4.47;;;2.78;;
20531;SDS011;10424;52.102;8.084;2023-04-24T03:47:38;4.75;;;2.40;;
20531;SDS011;10424;52.102;8.084;2023-04-24T03:50:06;4.95;;;3.63;;
20531;SDS011;10424;52.102;8.084;2023-04-24T03:52:33;6.00;;;4.28;;
20531;SDS011;10424;52.102;8.084;2023-04-24T03:55:00;5.63;;;3.72;;
20531;SDS011;10424;52.102;8.084;2023-04-24T03:57:29;6.80;;;4.55;;
20531;SDS011;10424;52.102;8.084;2023-04-24T03:59:56;9.05;;;5.18;;
20531;SDS011;10424;52.102;8.084;2023-04-24T04:02:23;6.68;;;4.35;;
20531;SDS011;10424;52.102;8.084;2023-04-24T04:04:51;4.85;;;3.53;;
20531;SDS011;10424;52.102;8.084;2023-04-24T04:07:18;8.73;;;5.55;;
20531;SDS011;10424;52.102;8.084;2023-04-24T04:09:45;7.00;;;4.50;;
20531;SDS011;10424;52.102;8.084;2023-04-24T04:12:12;8.20;;;5.03;;
20531;SDS011;10424;52.102;8.084;2023-04-24T04:14:41;6.60;;;4.20;;
20531;SDS011;10424;52.102;8.084;2023-04-24T04:17:08;7.20;;;4.95;;
20531;SDS011;10424;52.102;8.084;2023-04-24T04:19:36;6.53;;;3.95;;
20531;SDS011;10424;52.102;8.084;2023-04-24T04:22:03;7.35;;;4.95;;
20531;SDS011;10424;52.102;8.084;2023-04-24T04:24:30;7.32;;;4.80;;
20531;SDS011;10424;52.102;8.084;2023-04-24T04:26:57;7.10;;;3.97;;
20531;SDS011;10424;52.102;8.084;2023-04-24T04:29:25;5.88;;;3.90;;
20531;SDS011;10424;52.102;8.084;2023-04-24T04:31:54;8.27;;;4.30;;
20531;SDS011;10424;52.102;8.084;2023-04-24T04:34:21;8.93;;;5.60;;
20531;SDS011;10424;52.102;8.084;2023-04-24T04:36:48;12.38;;;7.35;;
20531;SDS011;10424;52.102;8.084;2023-04-24T04:39:16;10.60;;;6.40;;
20531;SDS011;10424;52.102;8.084;2023-04-24T04:41:43;10.68;;;6.03;;
20531;SDS011;10424;52.102;8.084;2023-04-24T04:44:13;12.55;;;7.63;;
20531;SDS011;10424;52.102;8.084;2023-04-24T04:46:41;14.55;;;8.45;;
20531;SDS011;10424;52.102;8.084;2023-04-24T04:49:10;14.73;;;8.48;;
20531;SDS011;10424;52.102;8.084;2023-04-24T04:51:38;16.15;;;8.77;;
20531;SDS011;10424;52.102;8.084;2023-04-24T04:54:05;12.57;;;7.88;;
20531;SDS011;10424;52.102;8.084;2023-04-24T04:56:32;16.15;;;9.00;;
20531;SDS011;10424;52.102;8.084;2023-04-24T04:58:59;16.17;;;8.93;;
20531;SDS011;10424;52.102;8.084;2023-04-24T05:01:27;20.25;;;10.85;;
20531;SDS011;10424;52.102;8.084;2023-04-24T05:03:54;15.82;;;7.93;;
20531;SDS011;10424;52.102;8.084;2023-04-24T05:06:23;11.15;;;5.93;;
20531;SDS011;10424;52.102;8.084;2023-04-24T05:08:50;20.02;;;11.13;;
20531;SDS011;10424;52.102;8.084;2023-04-24T05:11:22;15.40;;;8.68;;
20531;SDS011;10424;52.102;8.084;2023-04-24T05:13:49;20.42;;;11.43;;
20531;SDS011;10424;52.102;8.084;2023-04-24T05:16:16;19.17;;;12.02;;
20531;SDS011;10424;52.102;8.084;2023-04-24T05:18:43;13.65;;;8.32;;
20531;SDS011;10424;52.102;8.084;2023-04-24T05:21:11;19.20;;;10.60;;
20531;SDS011;10424;52.102;8.084;2023-04-24T05:23:39;19.15;;;9.85;;
20531;SDS011;10424;52.102;8.084;2023-04-24T05:26:07;19.20;;;9.07;;
20531;SDS011;10424;52.102;8.084;2023-04-24T05:28:34;20.65;;;11.57;;
20531;SDS011;10424;52.102;8.084;2023-04-24T05:31:01;20.17;;;9.80;;
20531;SDS011;10424;52.102;8.084;2023-04-24T05:33:29;14.52;;;8.18;;
20531;SDS011;10424;52.102;8.084;2023-04-24T05:35:56;19.38;;;10.82;;
20531;SDS011;10424;52.102;8.084;2023-04-24T05:38:24;17.60;;;9.60;;
20531;SDS011;10424;52.102;8.084;2023-04-24T05:40:52;17.02;;;9.13;;
20531;SDS011;10424;52.102;8.084;2023-04-24T05:43:20;19.23;;;10.20;;
20531;SDS011;10424;52.102;8.084;2023-04-24T05:45:47;19.85;;;9.90;;
20531;SDS011;10424;52.102;8.084;2023-04-24T05:48:14;18.45;;;10.82;;
20531;SDS011;10424;52.102;8.084;2023-04-24T05:50:42;16.50;;;9.32;;
20531;SDS011;10424;52.102;8.084;2023-04-24T05:53:09;24.65;;;11.75;;
20531;SDS011;10424;52.102;8.084;2023-04-24T05:55:36;20.88;;;11.00;;
20531;SDS011;10424;52.102;8.084;2023-04-24T05:58:05;15.52;;;9.27;;
20531;SDS011;10424;52.102;8.084;2023-04-24T06:00:32;20.98;;;12.13;;
20531;SDS011;10424;52.102;8.084;2023-04-24T06:03:00;19.33;;;9.30;;
20531;SDS011;10424;52.102;8.084;2023-04-24T06:05:28;20.23;;;11.70;;
20531;SDS011;10424;52.102;8.084;2023-04-24T06:07:56;19.13;;;11.20;;
20531;SDS011;10424;52.102;8.084;2023-04-24T06:10:23;19.20;;;9.70;;
20531;SDS011;10424;52.102;8.084;2023-04-24T06:12:50;16.08;;;8.98;;
20531;SDS011;10424;52.102;8.084;2023-04-24T06:15:22;18.52;;;9.93;;
20531;SDS011;10424;52.102;8.084;2023-04-24T06:17:49;16.42;;;8.82;;
20531;SDS011;10424;52.102;8.084;2023-04-24T06:20:17;16.88;;;9.50;;
20531;SDS011;10424;52.102;8.084;2023-04-24T06:22:44;19.25;;;10.65;;
20531;SDS011;10424;52.102;8.084;2023-04-24T06:25:11;20.23;;;11.45;;
20531;SDS011;10424;52.102;8.084;2023-04-24T06:27:38;17.77;;;10.10;;
20531;SDS011;10424;52.102;8.084;2023-04-24T06:30:06;16.98;;;9.32;;
20531;SDS011;10424;52.102;8.084;2023-04-24T06:32:35;20.00;;;12.27;;
20531;SDS011;10424;52.102;8.084;2023-04-24T06:35:02;15.15;;;8.98;;
20531;SDS011;10424;52.102;8.084;2023-04-24T06:37:31;19.52;;;11.75;;
20531;SDS011;10424;52.102;8.084;2023-04-24T06:39:59;22.25;;;12.25;;
20531;SDS011;10424;52.102;8.084;2023-04-24T06:42:26;11.93;;;6.60;;
20531;SDS011;10424;52.102;8.084;2023-04-24T06:44:53;16.77;;;8.75;;
20531;SDS011;10424;52.102;8.084;2023-04-24T06:47:20;20.35;;;11.40;;
20531;SDS011;10424;52.102;8.084;2023-04-24T06:49:49;14.65;;;8.85;;
20531;SDS011;10424;52.102;8.084;2023-04-24T06:52:17;13.40;;;8.15;;
20531;SDS011;10424;52.102;8.084;2023-04-24T06:54:44;18.15;;;10.75;;
20531;SDS011;10424;52.102;8.084;2023-04-24T06:57:12;19.35;;;10.25;;
20531;SDS011;10424;52.102;8.084;2023-04-24T06:59:41;19.30;;;11.27;;
20531;SDS011;10424;52.102;8.084;2023-04-24T07:02:08;18.35;;;10.48;;
20531;SDS011;10424;52.102;8.084;2023-04-24T07:04:36;15.15;;;8.88;;
20531;SDS011;10424;52.102;8.084;2023-04-24T07:07:04;18.63;;;9.93;;
20531;SDS011;10424;52.102;8.084;2023-04-24T07:09:32;18.17;;;10.60;;
20531;SDS011;10424;52.102;8.084;2023-04-24T07:12:03;12.07;;;7.18;;
20531;SDS011;10424;52.102;8.084;2023-04-24T07:14:31;17.80;;;10.75;;
20531;SDS011;10424;52.102;8.084;2023-04-24T07:16:58;10.90;;;6.05;;
20531;SDS011;10424;52.102;8.084;2023-04-24T07:19:26;16.48;;;11.35;;
20531;SDS011;10424;52.102;8.084;2023-04-24T07:21:53;17.05;;;10.02;;
20531;SDS011;10424;52.102;8.084;2023-04-24T07:24:22;10.63;;;5.93;;
20531;SDS011;10424;52.102;8.084;2023-04-24T07:26:50;13.98;;;8.63;;
20531;SDS011;10424;52.102;8.084;2023-04-24T07:29:17;16.08;;;9.10;;
20531;SDS011;10424;52.102;8.084;2023-04-24T07:31:46;13.68;;;8.88;;
20531;SDS011;10424;52.102;8.084;2023-04-24T07:34:13;13.10;;;8.43;;
20531;SDS011;10424;52.102;8.084;2023-04-24T07:36:40;12.18;;;5.95;;
20531;SDS011;10424;52.102;8.084;2023-04-24T07:39:08;9.35;;;5.40;;
20531;SDS011;10424;52.102;8.084;2023-04-24T07:41:36;9.48;;;5.35;;
20531;SDS011;10424;52.102;8.084;2023-04-24T07:44:03;11.68;;;7.15;;
20531;SDS011;10424;52.102;8.084;2023-04-24T07:46:31;13.85;;;8.32;;
20531;SDS011;10424;52.102;8.084;2023-04-24T07:48:58;12.98;;;8.35;;
20531;SDS011;10424;52.102;8.084;2023-04-24T07:51:26;12.95;;;7.60;;
20531;SDS011;10424;52.102;8.084;2023-04-24T07:53:53;13.82;;;8.70;;
20531;SDS011;10424;52.102;8.084;2023-04-24T07:56:21;13.68;;;8.63;;
20531;SDS011;10424;52.102;8.084;2023-04-24T07:58:49;12.82;;;8.02;;
20531;SDS011;10424;52.102;8.084;2023-04-24T08:01:17;9.90;;;6.15;;
20531;SDS011;10424;52.102;8.084;2023-04-24T08:03:44;10.82;;;7.03;;
20531;SDS011;10424;52.102;8.084;2023-04-24T08:06:11;8.98;;;5.55;;
20531;SDS011;10424;52.102;8.084;2023-04-24T08:08:38;11.95;;;7.47;;
20531;SDS011;10424;52.102;8.084;2023-04-24T08:11:06;8.57;;;5.65;;
20531;SDS011;10424;52.102;8.084;2023-04-24T08:13:33;10.48;;;6.57;;
20531;SDS011;10424;52.102;8.084;2023-04-24T08:16:02;11.02;;;6.53;;
20531;SDS011;10424;52.102;8.084;2023-04-24T08:18:29;8.10;;;5.22;;
20531;SDS011;10424;52.102;8.084;2023-04-24T08:20:56;10.68;;;6.65;;
20531;SDS011;10424;52.102;8.084;2023-04-24T08:23:26;10.57;;;7.07;;
20531;SDS011;10424;52.102;8.084;2023-04-24T08:25:53;9.93;;;7.78;;
20531;SDS011;10424;52.102;8.084;2023-04-24T08:28:21;8.65;;;6.40;;
20531;SDS011;10424;52.102;8.084;2023-04-24T08:30:48;8.23;;;4.90;;
20531;SDS011;10424;52.102;8.084;2023-04-24T08:33:21;9.77;;;5.63;;
20531;SDS011;10424;52.102;8.084;2023-04-24T08:35:48;8.45;;;5.18;;
20531;SDS011;10424;52.102;8.084;2023-04-24T08:38:15;8.25;;;5.93;;
20531;SDS011;10424;52.102;8.084;2023-04-24T08:40:43;8.13;;;5.50;;
20531;SDS011;10424;52.102;8.084;2023-04-24T08:43:11;8.25;;;5.57;;
20531;SDS011;10424;52.102;8.084;2023-04-24T08:45:39;8.73;;;5.45;;
20531;SDS011;10424;52.102;8.084;2023-04-24T08:48:07;7.72;;;5.97;;
20531;SDS011;10424;52.102;8.084;2023-04-24T08:50:35;8.55;;;5.93;;
20531;SDS011;10424;52.102;8.084;2023-04-24T08:53:04;7.75;;;5.47;;
20531;SDS011;10424;52.102;8.084;2023-04-24T08:55:31;8.23;;;5.60;;
20531;SDS011;10424;52.102;8.084;2023-04-24T08:58:00;5.63;;;4.38;;
20531;SDS011;10424;52.102;8.084;2023-04-24T09:00:29;7.10;;;5.18;;
20531;SDS011;10424;52.102;8.084;2023-04-24T09:02:56;7.35;;;4.95;;
20531;SDS011;10424;52.102;8.084;2023-04-24T09:05:24;6.63;;;4.28;;
20531;SDS011;10424;52.102;8.084;2023-04-24T09:07:54;6.70;;;4.75;;
20531;SDS011;10424;52.102;8.084;2023-04-24T09:10:22;6.97;;;4.68;;
20531;SDS011;10424;52.102;8.084;2023-04-24T09:12:50;8.18;;;5.43;;
20531;SDS011;10424;52.102;8.084;2023-04-24T09:15:18;7.25;;;5.63;;
20531;SDS011;10424;52.102;8.084;2023-04-24T09:17:45;5.13;;;3.35;;
20531;SDS011;10424;52.102;8.084;2023-04-24T09:20:12;5.22;;;4.25;;
20531;SDS011;10424;52.102;8.084;2023-04-24T09:22:40;6.97;;;4.95;;
20531;SDS011;10424;52.102;8.084;2023-04-24T09:25:09;5.18;;;3.90;;
20531;SDS011;10424;52.102;8.084;2023-04-24T09:27:38;7.30;;;5.32;;
20531;SDS011;10424;52.102;8.084;2023-04-24T09:30:08;8.10;;;5.72;;
20531;SDS011;10424;52.102;8.084;2023-04-24T09:32:35;7.38;;;4.65;;
20531;SDS011;10424;52.102;8.084;2023-04-24T09:35:07;7.47;;;4.30;;
20531;SDS011;10424;52.102;8.084;2023-04-24T09:37:35;6.35;;;5.05;;
20531;SDS011;10424;52.102;8.084;2023-04-24T09:40:11;7.10;;;5.05;;
20531;SDS011;10424;52.102;8.084;2023-04-24T09:42:38;5.50;;;3.95;;
20531;SDS011;10424;52.102;8.084;2023-04-24T09:45:09;8.48;;;5.00;;
20531;SDS011;10424;52.102;8.084;2023-04-24T09:47:37;6.03;;;3.83;;
20531;SDS011;10424;52.102;8.084;2023-04-24T09:50:11;5.47;;;4.30;;
20531;SDS011;10424;52.102;8.084;2023-04-24T09:52:45;5.43;;;3.55;;
20531;SDS011;10424;52.102;8.084;2023-04-24T09:55:16;6.68;;;5.00;;
20531;SDS011;10424;52.102;8.084;2023-04-24T09:57:47;8.10;;;5.28;;
20531;SDS011;10424;52.102;8.084;2023-04-24T10:00:17;7.25;;;5.05;;
20531;SDS011;10424;52.102;8.084;2023-04-24T10:02:49;6.75;;;5.43;;
20531;SDS011;10424;52.102;8.084;2023-04-24T10:05:17;7.18;;;4.72;;
20531;SDS011;10424;52.102;8.084;2023-04-24T10:07:44;9.35;;;5.53;;
20531;SDS011;10424;52.102;8.084;2023-04-24T10:10:12;6.88;;;4.88;;
20531;SDS011;10424;52.102;8.084;2023-04-24T10:12:41;5.80;;;4.63;;
20531;SDS011;10424;52.102;8.084;2023-04-24T10:15:10;4.70;;;3.50;;
20531;SDS011;10424;52.102;8.084;2023-04-24T10:17:39;8.98;;;6.50;;
20531;SDS011;10424;52.102;8.084;2023-04-24T10:20:07;6.78;;;5.57;;
20531;SDS011;10424;52.102;8.084;2023-04-24T10:22:35;6.65;;;5.25;;
20531;SDS011;10424;52.102;8.084;2023-04-24T10:25:03;6.78;;;4.72;;
20531;SDS011;10424;52.102;8.084;2023-04-24T10:27:31;6.13;;;5.13;;
20531;SDS011;10424;52.102;8.084;2023-04-24T10:30:00;5.65;;;4.53;;
20531;SDS011;10424;52.102;8.084;2023-04-24T10:32:28;6.43;;;4.97;;
20531;SDS011;10424;52.102;8.084;2023-04-24T10:34:56;6.40;;;5.47;;
20531;SDS011;10424;52.102;8.084;2023-04-24T10:37:23;5.70;;;4.13;;
20531;SDS011;10424;52.102;8.084;2023-04-24T10:39:51;5.93;;;4.90;;
20531;SDS011;10424;52.102;8.084;2023-04-24T10:42:19;5.93;;;4.93;;
20531;SDS011;10424;52.102;8.084;2023-04-24T10:44:48;5.35;;;4.00;;
20531;SDS011;10424;52.102;8.084;2023-04-24T10:47:16;4.25;;;3.47;;
20531;SDS011;10424;52.102;8.084;2023-04-24T10:49:44;4.63;;;3.63;;
20531;SDS011;10424;52.102;8.084;2023-04-24T10:52:11;4.85;;;2.63;;
20531;SDS011;10424;52.102;8.084;2023-04-24T10:54:41;3.90;;;3.50;;
20531;SDS011;10424;52.102;8.084;2023-04-24T10:57:25;3.53;;;2.58;;
20531;SDS011;10424;52.102;8.084;2023-04-24T11:00:10;5.20;;;3.08;;
20531;SDS011;10424;52.102;8.084;2023-04-24T11:02:40;4.82;;;3.10;;
20531;SDS011;10424;52.102;8.084;2023-04-24T11:05:14;3.92;;;2.97;;
20531;SDS011;10424;52.102;8.084;2023-04-24T11:10:37;5.18;;;2.70;;
20531;SDS011;10424;52.102;8.084;2023-04-24T11:13:05;2.78;;;1.92;;
20531;SDS011;10424;52.102;8.084;2023-04-24T11:15:32;3.15;;;1.83;;
20531;SDS011;10424;52.102;8.084;2023-04-24T11:18:00;2.47;;;1.90;;
20531;SDS011;10424;52.102;8.084;2023-04-24T11:20:28;4.07;;;1.90;;
20531;SDS011;10424;52.102;8.084;2023-04-24T11:22:57;3.55;;;1.65;;
20531;SDS011;10424;52.102;8.084;2023-04-24T11:25:30;3.75;;;1.73;;
20531;SDS011;10424;52.102;8.084;2023-04-24T11:28:02;4.22;;;1.92;;
20531;SDS011;10424;52.102;8.084;2023-04-24T11:30:30;3.05;;;2.30;;
20531;SDS011;10424;52.102;8.084;2023-04-24T11:33:02;3.63;;;2.33;;
20531;SDS011;10424;52.102;8.084;2023-04-24T11:35:30;3.60;;;2.63;;
20531;SDS011;10424;52.102;8.084;2023-04-24T11:38:02;4.13;;;2.88;;
20531;SDS011;10424;52.102;8.084;2023-04-24T11:40:30;5.63;;;3.58;;
20531;SDS011;10424;52.102;8.084;2023-04-24T11:42:59;4.47;;;2.85;;
20531;SDS011;10424;52.102;8.084;2023-04-24T11:45:27;6.00;;;4.30;;
20531;SDS011;10424;52.102;8.084;2023-04-24T11:47:55;7.40;;;5.15;;
20531;SDS011;10424;52.102;8.084;2023-04-24T11:50:24;8.70;;;4.70;;
20531;SDS011;10424;52.102;8.084;2023-04-24T11:52:53;9.57;;;5.45;;
20531;SDS011;10424;52.102;8.084;2023-04-24T11:55:24;9.98;;;5.47;;
20531;SDS011;10424;52.102;8.084;2023-04-24T11:57:53;11.20;;;5.93;;
20531;SDS011;10424;52.102;8.084;2023-04-24T12:00:22;10.43;;;6.20;;
20531;SDS011;10424;52.102;8.084;2023-04-24T12:02:49;8.70;;;6.18;;
20531;SDS011;10424;52.102;8.084;2023-04-24T12:05:20;9.65;;;6.10;;
20531;SDS011;10424;52.102;8.084;2023-04-24T12:07:48;10.25;;;6.30;;
20531;SDS011;10424;52.102;8.084;2023-04-24T12:10:19;12.45;;;6.38;;
20531;SDS011;10424;52.102;8.084;2023-04-24T12:12:46;12.15;;;6.55;;
20531;SDS011;10424;52.102;8.084;2023-04-24T12:15:15;11.32;;;6.88;;
20531;SDS011;10424;52.102;8.084;2023-04-24T12:17:43;14.82;;;7.00;;
20531;SDS011;10424;52.102;8.084;2023-04-24T12:20:11;10.25;;;6.50;;
20531;SDS011;10424;52.102;8.084;2023-04-24T12:22:45;13.77;;;7.60;;
20531;SDS011;10424;52.102;8.084;2023-04-24T12:25:14;12.10;;;6.40;;
20531;SDS011;10424;52.102;8.084;2023-04-24T12:27:41;11.20;;;6.05;;
20531;SDS011;10424;52.102;8.084;2023-04-24T12:30:10;9.68;;;6.30;;
20531;SDS011;10424;52.102;8.084;2023-04-24T12:32:40;11.57;;;6.18;;
20531;SDS011;10424;52.102;8.084;2023-04-24T12:35:08;11.40;;;6.20;;
20531;SDS011;10424;52.102;8.084;2023-04-24T12:37:36;9.57;;;5.72;;
20531;SDS011;10424;52.102;8.084;2023-04-24T12:40:05;10.52;;;6.13;;
20531;SDS011;10424;52.102;8.084;2023-04-24T12:42:34;6.82;;;4.15;;
20531;SDS011;10424;52.102;8.084;2023-04-24T12:45:02;7.32;;;4.60;;
20531;SDS011;10424;52.102;8.084;2023-04-24T12:47:30;8.20;;;4.28;;
20531;SDS011;10424;52.102;8.084;2023-04-24T12:49:58;6.43;;;3.55;;
20531;SDS011;10424;52.102;8.084;2023-04-24T12:52:26;7.50;;;3.90;;
20531;SDS011;10424;52.102;8.084;2023-04-24T12:54:54;6.38;;;3.58;;
20531;SDS011;10424;52.102;8.084;2023-04-24T12:57:21;7.00;;;3.92;;
20531;SDS011;10424;52.102;8.084;2023-04-24T12:59:50;8.98;;;4.05;;
20531;SDS011;10424;52.102;8.084;2023-04-24T13:02:17;6.40;;;3.67;;
20531;SDS011;10424;52.102;8.084;2023-04-24T13:04:45;7.90;;;3.50;;
20531;SDS011;10424;52.102;8.084;2023-04-24T13:07:12;10.20;;;3.88;;
20531;SDS011;10424;52.102;8.084;2023-04-24T13:09:39;8.02;;;3.83;;
20531;SDS011;10424;52.102;8.084;2023-04-24T13:12:07;9.70;;;4.53;;
20531;SDS011;10424;52.102;8.084;2023-04-24T13:14:34;9.65;;;5.05;;
20531;SDS011;10424;52.102;8.084;2023-04-24T13:17:03;9.82;;;5.07;;
20531;SDS011;10424;52.102;8.084;2023-04-24T13:19:35;12.23;;;5.07;;
20531;SDS011;10424;52.102;8.084;2023-04-24T13:22:02;10.23;;;5.20;;
20531;SDS011;10424;52.102;8.084;2023-04-24T13:24:30;10.20;;;5.13;;
20531;SDS011;10424;52.102;8.084;2023-04-24T13:26:57;12.88;;;5.53;;
20531;SDS011;10424;52.102;8.084;2023-04-24T13:29:25;10.90;;;4.85;;
20531;SDS011;10424;52.102;8.084;2023-04-24T13:31:53;9.05;;;5.28;;
20531;SDS011;10424;52.102;8.084;2023-04-24T13:34:22;14.32;;;6.00;;
20531;SDS011;10424;52.102;8.084;2023-04-24T13:36:50;11.15;;;5.93;;
20531;SDS011;10424;52.102;8.084;2023-04-24T13:39:17;12.05;;;5.80;;
20531;SDS011;10424;52.102;8.084;2023-04-24T13:41:45;10.80;;;6.07;;
20531;SDS011;10424;52.102;8.084;2023-04-24T13:44:13;10.55;;;6.07;;
20531;SDS011;10424;52.102;8.084;2023-04-24T13:46:40;11.80;;;6.43;;
20531;SDS011;10424;52.102;8.084;2023-04-24T13:49:09;12.40;;;6.28;;
20531;SDS011;10424;52.102;8.084;2023-04-24T13:51:37;16.13;;;6.15;;
20531;SDS011;10424;52.102;8.084;2023-04-24T13:54:05;11.98;;;6.18;;
20531;SDS011;10424;52.102;8.084;2023-04-24T13:56:32;13.25;;;5.78;;
20531;SDS011;10424;52.102;8.084;2023-04-24T13:59:00;15.15;;;6.18;;
20531;SDS011;10424;52.102;8.084;2023-04-24T14:01:27;13.48;;;6.10;;
20531;SDS011;10424;52.102;8.084;2023-04-24T14:03:55;13.48;;;6.35;;
20531;SDS011;10424;52.102;8.084;2023-04-24T14:06:22;12.23;;;5.78;;
20531;SDS011;10424;52.102;8.084;2023-04-24T14:08:52;11.43;;;6.00;;
20531;SDS011;10424;52.102;8.084;2023-04-24T14:11:19;13.55;;;6.40;;
20531;SDS011;10424;52.102;8.084;2023-04-24T14:13:47;12.48;;;5.80;;
20531;SDS011;10424;52.102;8.084;2023-04-24T14:16:14;14.68;;;6.18;;
20531;SDS011;10424;52.102;8.084;2023-04-24T14:18:41;13.63;;;6.28;;
20531;SDS011;10424;52.102;8.084;2023-04-24T14:21:09;11.55;;;6.10;;
20531;SDS011;10424;52.102;8.084;2023-04-24T14:23:36;13.63;;;6.43;;
20531;SDS011;10424;52.102;8.084;2023-04-24T14:26:05;12.55;;;5.47;;
20531;SDS011;10424;52.102;8.084;2023-04-24T14:28:32;11.23;;;5.60;;
20531;SDS011;10424;52.102;8.084;2023-04-24T14:31:00;12.75;;;5.13;;
20531;SDS011;10424;52.102;8.084;2023-04-24T14:33:27;12.88;;;5.45;;
20531;SDS011;10424;52.102;8.084;2023-04-24T14:35:54;11.18;;;5.30;;
20531;SDS011;10424;52.102;8.084;2023-04-24T14:38:22;12.68;;;4.88;;
20531;SDS011;10424;52.102;8.084;2023-04-24T14:40:49;8.60;;;4.70;;
20531;SDS011;10424;52.102;8.084;2023-04-24T14:43:18;8.23;;;3.83;;
20531;SDS011;10424;52.102;8.084;2023-04-24T14:45:45;11.90;;;4.65;;
20531;SDS011;10424;52.102;8.084;2023-04-24T14:48:13;11.02;;;4.95;;